Mister Jim — WDJ2018 — position and weather

sailwx.info

Track history (hours):
 
Tides and Currents Weather Stations Pressure Air Temp Water Temp Dewpoint Dewpoint Depression Visibility Wind Speed Wind Dir Waves Ship Positions

Mister Jim

Owner: Coeymans Marine Towing LLC, Coeymans, NY. More information available from US FCC via Universal Licensing System and Coast Guard Vessel Documentation Center.

Last reported at 2017-Oct-17 11:54 UTC. Time now 2017-Oct-18 11:14 UTC.
Position N 39°13' W 074°25'.

Length 27 m; draft 4 m.

Type: Towing. MMSI: 367754450.

Date/timePositionNaut miles runAvg speedWind from/ knotsBaromVisibWave heightAir tempDewpointWater temp
2017-Oct-17 11:54N 39°13' W 074°25'20 7.9
2017-Oct-17 09:23N 39°29' W 074°11'4 8.0
2017-Oct-17 08:55N 39°33' W 074°09'3 8.0
2017-Oct-17 08:30N 39°36' W 074°07'4 8.0
2017-Oct-17 08:00N 39°40' W 074°06'4 8.0
2017-Oct-17 07:30N 39°43' W 074°04'4 7.9
2017-Oct-17 07:00N 39°47' W 074°02'4 7.8
2017-Oct-17 06:30N 39°51' W 074°01'38 7.9
2017-Oct-17 01:42N 40°29' W 073°54'4 8.9
2017-Oct-17 01:14N 40°31' W 073°58'2 8.9
2017-Oct-17 01:00N 40°32' W 074°01'4 8.2
2017-Oct-17 00:30N 40°36' W 074°02'4 7.2
2017-Oct-17 00:00N 40°39' W 074°02'0 0.9
2017-Oct-16 23:30N 40°40' W 074°02'0 0.0
2017-Oct-16 23:00N 40°40' W 074°02'0 0.1
2017-Oct-16 22:30N 40°40' W 074°02'1 1.3
2017-Oct-16 22:00N 40°40' W 074°01'0 0.4
2017-Oct-16 21:30N 40°40' W 074°01'0 0.0
2017-Oct-16 21:00N 40°40' W 074°01'0 0.0
2017-Oct-16 20:30N 40°40' W 074°01'0 0.0
2017-Oct-16 20:00N 40°40' W 074°01'0 0.0
2017-Oct-16 19:30N 40°40' W 074°01'0 0.0
2017-Oct-16 19:00N 40°40' W 074°01'0 0.0
2017-Oct-16 18:30N 40°40' W 074°01'0 0.0
2017-Oct-16 18:00N 40°40' W 074°01'0 0.0
2017-Oct-16 17:30N 40°40' W 074°01'0 0.0
2017-Oct-16 17:00N 40°40' W 074°01'0 0.0
2017-Oct-16 16:30N 40°40' W 074°01'0 0.0
2017-Oct-16 16:00N 40°40' W 074°01'0 0.0
2017-Oct-16 15:30N 40°40' W 074°01'0 0.0
2017-Oct-16 15:00N 40°40' W 074°01'0 0.0
2017-Oct-16 14:30N 40°40' W 074°01'0 0.0
2017-Oct-16 13:30N 40°40' W 074°01'0 0.0
2017-Oct-16 13:00N 40°40' W 074°01'0 0.0
2017-Oct-16 12:30N 40°40' W 074°01'0 0.0
2017-Oct-16 12:00N 40°40' W 074°01'0 0.0
2017-Oct-16 11:30N 40°40' W 074°01'0 0.0
2017-Oct-16 11:00N 40°40' W 074°01'0 0.0
2017-Oct-16 10:30N 40°40' W 074°01'0 0.0
2017-Oct-16 10:00N 40°40' W 074°01'0 0.0
2017-Oct-16 09:30N 40°40' W 074°01'0 0.0
2017-Oct-16 09:00N 40°40' W 074°01'0 0.0
2017-Oct-16 08:30N 40°40' W 074°01'0 0.0
2017-Oct-16 08:00N 40°40' W 074°01'0 0.0
2017-Oct-16 07:30N 40°40' W 074°01'0 0.0
2017-Oct-16 07:00N 40°40' W 074°01'0 0.0
2017-Oct-16 06:30N 40°40' W 074°01'0 0.0
2017-Oct-16 06:00N 40°40' W 074°01'0 0.0
2017-Oct-16 05:30N 40°40' W 074°01'0 0.0
2017-Oct-16 05:00N 40°40' W 074°01'0 0.0
2017-Oct-16 04:30N 40°40' W 074°01'0 0.0
2017-Oct-16 04:00N 40°40' W 074°01'0 0.0
2017-Oct-16 03:30N 40°40' W 074°01'0 0.0
2017-Oct-16 03:00N 40°40' W 074°01'0 0.0
2017-Oct-16 02:30N 40°40' W 074°01'0 0.0
2017-Oct-16 02:00N 40°40' W 074°01'0 0.0
2017-Oct-16 01:30N 40°40' W 074°01'0 0.0
2017-Oct-16 01:00N 40°40' W 074°01'0 0.0
2017-Oct-16 00:30N 40°40' W 074°01'0 0.0
2017-Oct-16 00:00N 40°40' W 074°01'0 0.0
2017-Oct-15 23:30N 40°40' W 074°01'0 0.0
2017-Oct-15 23:00N 40°40' W 074°01'0 0.0
2017-Oct-15 22:30N 40°40' W 074°01'0 0.0
2017-Oct-15 22:00N 40°40' W 074°01'0 0.0
2017-Oct-15 21:30N 40°40' W 074°01'0 0.0
2017-Oct-15 21:00N 40°40' W 074°01'0 0.0
2017-Oct-15 20:30N 40°40' W 074°01'0 0.0
2017-Oct-15 20:00N 40°40' W 074°01'0 0.0
2017-Oct-15 19:30N 40°40' W 074°01'0 0.0
2017-Oct-15 19:00N 40°40' W 074°01'0 0.0
2017-Oct-15 18:30N 40°40' W 074°01'0 0.0
2017-Oct-15 18:00N 40°40' W 074°01'0 0.0
2017-Oct-15 17:30N 40°40' W 074°01'0 0.0
2017-Oct-15 17:00N 40°40' W 074°01'0 0.0
2017-Oct-15 16:30N 40°40' W 074°01'0 0.0
2017-Oct-15 16:00N 40°40' W 074°01'0 0.0
2017-Oct-15 15:30N 40°40' W 074°01'0 0.0
2017-Oct-15 15:00N 40°40' W 074°01'0 0.0
2017-Oct-15 14:00N 40°40' W 074°01'0 0.0
2017-Oct-15 13:30N 40°40' W 074°01'0 0.0
2017-Oct-15 13:00N 40°40' W 074°01'0 0.0
2017-Oct-15 12:30N 40°40' W 074°01'0 0.0
2017-Oct-15 12:00N 40°40' W 074°01'0 0.0
2017-Oct-15 11:30N 40°40' W 074°01'0 0.0
2017-Oct-15 11:00N 40°40' W 074°01'0 0.0
2017-Oct-15 10:30N 40°40' W 074°01'0 0.0
2017-Oct-15 10:00N 40°40' W 074°01'0 0.0
2017-Oct-15 09:30N 40°40' W 074°01'0 0.0
2017-Oct-15 09:00N 40°40' W 074°01'0 0.0
2017-Oct-15 08:31N 40°40' W 074°01'0 0.0
2017-Oct-15 08:00N 40°40' W 074°01'0 0.0
2017-Oct-15 07:30N 40°40' W 074°01'0 0.0
2017-Oct-15 07:00N 40°40' W 074°01'0 0.0
2017-Oct-15 06:30N 40°40' W 074°01'0 0.0
2017-Oct-15 06:00N 40°40' W 074°01'0 0.0
2017-Oct-15 05:30N 40°40' W 074°01'0 0.0
2017-Oct-15 05:00N 40°40' W 074°01'0 0.0
2017-Oct-15 04:30N 40°40' W 074°01'0 0.0
2017-Oct-15 04:00N 40°40' W 074°01'0 0.0
2017-Oct-15 03:30N 40°40' W 074°01'0 0.0
2017-Oct-15 03:00N 40°40' W 074°01'0 1.0
2017-Oct-15 02:30N 40°40' W 074°01'4 7.2
2017-Oct-15 01:59N 40°39' W 074°06'1 1.5
2017-Oct-15 01:30N 40°39' W 074°07'0 0.0
2017-Oct-15 01:00N 40°39' W 074°07'0 0.0
2017-Oct-15 00:30N 40°39' W 074°07'0 0.0
2017-Oct-15 00:00N 40°39' W 074°07'0 0.0
2017-Oct-14 23:29N 40°39' W 074°07'1 1.6
2017-Oct-14 23:00N 40°39' W 074°06'4 7.2
2017-Oct-14 22:30N 40°40' W 074°01'0 1.0
2017-Oct-14 22:00N 40°40' W 074°01'0 0.0
2017-Oct-14 21:30N 40°40' W 074°01'1 1.6
2017-Oct-14 21:00N 40°40' W 074°02'1 1.6
2017-Oct-14 20:30N 40°41' W 074°02'3 5.5
2017-Oct-14 20:00N 40°43' W 074°01'3 6.1
2017-Oct-14 19:30N 40°46' W 074°00'3 6.4
2017-Oct-14 19:00N 40°49' W 073°58'3 6.9
2017-Oct-14 18:30N 40°52' W 073°56'4 7.8
2017-Oct-14 17:57N 40°56' W 073°55'2 0.1
2017-Oct-13 04:59N 40°58' W 073°54'3 5.3
2017-Oct-13 04:30N 40°56' W 073°55'2 4.9
2017-Oct-13 04:00N 40°54' W 073°56'2 4.3
2017-Oct-13 03:30N 40°52' W 073°57'3 6.2
2017-Oct-13 03:00N 40°49' W 073°58'3 6.3
2017-Oct-13 02:30N 40°46' W 074°01'3 6.3
2017-Oct-13 02:00N 40°43' W 074°01'3 6.0
2017-Oct-13 01:30N 40°40' W 074°03'0 0.5
2017-Oct-13 01:00N 40°40' W 074°03'0 0.2
2017-Oct-13 00:30N 40°40' W 074°03'1 2.5
2017-Oct-13 00:00N 40°40' W 074°02'0 0.4
2017-Oct-12 23:30N 40°40' W 074°02'0 0.0
2017-Oct-12 23:00N 40°40' W 074°02'1 2.7
2017-Oct-12 22:30N 40°41' W 074°02'3 5.8
2017-Oct-12 22:00N 40°44' W 074°01'3 5.1
2017-Oct-12 21:30N 40°46' W 074°00'2 4.3
2017-Oct-12 21:00N 40°48' W 073°59'2 3.7
2017-Oct-12 20:30N 40°50' W 073°58'2 3.3
2017-Oct-12 19:59N 40°52' W 073°57'2 3.2
2017-Oct-12 19:29N 40°53' W 073°56'14 0.3
2017-Oct-11 00:00N 40°40' W 074°03'3 5.5
2017-Oct-10 23:30N 40°42' W 074°01'3 6.4
2017-Oct-10 23:00N 40°44' W 073°58'1 1.5
2017-Oct-10 22:30N 40°44' W 073°57'1 3.0
2017-Oct-10 22:00N 40°43' W 073°58'2 4.6
2017-Oct-10 21:30N 40°42' W 074°00'3 6.0
2017-Oct-10 21:00N 40°40' W 074°03'4 8.3
2017-Oct-10 20:30N 40°38' W 074°09'3 5.4
2017-Oct-10 20:00N 40°38' W 074°12'0 0.1
2017-Oct-10 19:30N 40°38' W 074°12'2 3.4
2017-Oct-10 19:00N 40°39' W 074°10'3 6.7
2017-Oct-10 18:30N 40°39' W 074°06'2 4.9
2017-Oct-10 18:00N 40°40' W 074°03'0 0.0
2017-Oct-10 17:30N 40°40' W 074°03'1 1.2
2017-Oct-10 17:00N 40°40' W 074°02'1 0.1
2017-Oct-10 04:01N 40°40' W 074°01'0 0.0
2017-Oct-10 04:00N 40°40' W 074°01'0 0.5
2017-Oct-10 03:30N 40°40' W 074°01'4 7.9
2017-Oct-10 03:00N 40°39' W 074°06'4 7.2
2017-Oct-10 02:26N 40°39' W 074°11'1 2.5
2017-Oct-10 01:57N 40°38' W 074°12'1 1.6
2017-Oct-10 01:30N 40°38' W 074°12'3 7.0
2017-Oct-10 01:00N 40°39' W 074°07'3 6.4
2017-Oct-10 00:30N 40°40' W 074°03'0 0.2
2017-Oct-10 00:00N 40°40' W 074°03'2 4.3
2017-Oct-09 23:30N 40°42' W 074°01'3 5.5
2017-Oct-09 23:00N 40°43' W 073°58'1 2.7
2017-Oct-09 22:30N 40°44' W 073°57'1 1.0
2017-Oct-09 22:00N 40°44' W 073°57'0 0.1
2017-Oct-09 21:30N 40°44' W 073°57'2 3.7
2017-Oct-09 21:01N 40°43' W 073°58'2 4.8
2017-Oct-09 20:30N 40°41' W 074°01'1 2.2
2017-Oct-09 20:00N 40°40' W 074°01'0 0.0
2017-Oct-09 19:30N 40°40' W 074°01'0 0.0
2017-Oct-09 19:00N 40°40' W 074°01'0 0.0
2017-Oct-09 18:31N 40°40' W 074°01'0 0.0
2017-Oct-09 18:00N 40°40' W 074°01'0 0.0
2017-Oct-09 17:31N 40°40' W 074°01'0 0.0
2017-Oct-09 17:01N 40°40' W 074°01'0 0.0
2017-Oct-09 16:31N 40°40' W 074°01'0 0.0
2017-Oct-09 16:01N 40°40' W 074°01'0 0.0
2017-Oct-09 15:31N 40°40' W 074°01'0 0.0
2017-Oct-09 15:00N 40°40' W 074°01'0 0.0
2017-Oct-09 14:30N 40°40' W 074°01'1 1.1
2017-Oct-09 14:00N 40°40' W 074°01'1 1.2
2017-Oct-09 13:30N 40°40' W 074°02'1 0.0
2017-Oct-08 08:59N 40°40' W 074°01'0 0.0
2017-Oct-08 08:30N 40°40' W 074°01'0 0.0
2017-Oct-08 08:00N 40°40' W 074°01'0 0.0
2017-Oct-08 07:30N 40°40' W 074°01'0 0.0
2017-Oct-08 07:00N 40°40' W 074°01'0 0.0
2017-Oct-08 06:30N 40°40' W 074°01'0 0.0
2017-Oct-08 06:00N 40°40' W 074°01'0 0.0
2017-Oct-08 05:30N 40°40' W 074°01'0 0.0
2017-Oct-08 05:00N 40°40' W 074°01'0 0.0
2017-Oct-08 04:30N 40°40' W 074°01'0 0.0
2017-Oct-08 04:00N 40°40' W 074°01'0 0.0
2017-Oct-08 03:30N 40°40' W 074°01'0 0.0
2017-Oct-08 03:00N 40°40' W 074°01'0 0.0
2017-Oct-08 02:30N 40°40' W 074°01'0 0.0
2017-Oct-08 02:00N 40°40' W 074°01'0 0.0
2017-Oct-08 01:30N 40°40' W 074°01'0 0.0
2017-Oct-08 01:00N 40°40' W 074°01'1 1.4
2017-Oct-08 00:30N 40°40' W 074°02'0 0.8
2017-Oct-08 00:00N 40°40' W 074°02'2 3.7
2017-Oct-07 23:30N 40°40' W 074°04'0 0.9
2017-Oct-07 23:00N 40°40' W 074°04'4 7.2
2017-Oct-07 22:30N 40°42' W 073°60'3 5.8
2017-Oct-07 21:59N 40°44' W 073°57'0 0.5
2017-Oct-07 21:29N 40°44' W 073°57'2 3.8
2017-Oct-07 21:00N 40°43' W 073°58'3 6.0
2017-Oct-07 20:30N 40°41' W 074°01'1 2.4
2017-Oct-07 20:00N 40°40' W 074°00'0 0.0
2017-Oct-07 19:30N 40°40' W 074°00'0 0.0
2017-Oct-07 19:00N 40°40' W 074°00'0 0.0
2017-Oct-07 18:30N 40°40' W 074°00'1 1.2
2017-Oct-07 18:00N 40°40' W 074°01'2 3.3
2017-Oct-07 17:30N 40°40' W 074°03'0 0.0
2017-Oct-07 17:00N 40°40' W 074°03'0 0.0
2017-Oct-07 16:30N 40°40' W 074°03'0 0.1
2017-Oct-07 16:00N 40°40' W 074°03'0 0.1
2017-Oct-07 15:30N 40°40' W 074°03'0 0.0
2017-Oct-07 15:00N 40°40' W 074°03'0 0.0
2017-Oct-07 14:30N 40°40' W 074°03'0 0.0
2017-Oct-07 14:00N 40°40' W 074°03'0 0.0
2017-Oct-07 13:30N 40°40' W 074°03'0 0.0
2017-Oct-07 13:00N 40°40' W 074°03'0 0.0
2017-Oct-07 12:30N 40°40' W 074°03'0 0.0
2017-Oct-07 12:00N 40°40' W 074°03'  
Track history (hours):
 
Tides and Currents Weather Stations Pressure Air Temp Water Temp Dewpoint Dewpoint Depression Visibility Wind Speed Wind Dir Waves Ship Positions

Mister Jim

Owner: Coeymans Marine Towing LLC, Coeymans, NY. More information available from US FCC via Universal Licensing System and Coast Guard Vessel Documentation Center.

Last reported at 2017-Oct-17 11:54 UTC. Time now 2017-Oct-18 11:14 UTC.
Position N 39°13' W 074°25'.

Length 27 m; draft 4 m.

Type: Towing. MMSI: 367754450.

Date/timePositionNaut miles runAvg speedWind from/ knotsBaromVisibWave heightAir tempDewpointWater temp
2017-Oct-17 11:54N 39°13' W 074°25'20 7.9
2017-Oct-17 09:23N 39°29' W 074°11'4 8.0
2017-Oct-17 08:55N 39°33' W 074°09'3 8.0
2017-Oct-17 08:30N 39°36' W 074°07'4 8.0
2017-Oct-17 08:00N 39°40' W 074°06'4 8.0
2017-Oct-17 07:30N 39°43' W 074°04'4 7.9
2017-Oct-17 07:00N 39°47' W 074°02'4 7.8
2017-Oct-17 06:30N 39°51' W 074°01'38 7.9
2017-Oct-17 01:42N 40°29' W 073°54'4 8.9
2017-Oct-17 01:14N 40°31' W 073°58'2 8.9
2017-Oct-17 01:00N 40°32' W 074°01'4 8.2
2017-Oct-17 00:30N 40°36' W 074°02'4 7.2
2017-Oct-17 00:00N 40°39' W 074°02'0 0.9
2017-Oct-16 23:30N 40°40' W 074°02'0 0.0
2017-Oct-16 23:00N 40°40' W 074°02'0 0.1
2017-Oct-16 22:30N 40°40' W 074°02'1 1.3
2017-Oct-16 22:00N 40°40' W 074°01'0 0.4
2017-Oct-16 21:30N 40°40' W 074°01'0 0.0
2017-Oct-16 21:00N 40°40' W 074°01'0 0.0
2017-Oct-16 20:30N 40°40' W 074°01'0 0.0
2017-Oct-16 20:00N 40°40' W 074°01'0 0.0
2017-Oct-16 19:30N 40°40' W 074°01'0 0.0
2017-Oct-16 19:00N 40°40' W 074°01'0 0.0
2017-Oct-16 18:30N 40°40' W 074°01'0 0.0
2017-Oct-16 18:00N 40°40' W 074°01'0 0.0
2017-Oct-16 17:30N 40°40' W 074°01'0 0.0
2017-Oct-16 17:00N 40°40' W 074°01'0 0.0
2017-Oct-16 16:30N 40°40' W 074°01'0 0.0
2017-Oct-16 16:00N 40°40' W 074°01'0 0.0
2017-Oct-16 15:30N 40°40' W 074°01'0 0.0
2017-Oct-16 15:00N 40°40' W 074°01'0 0.0
2017-Oct-16 14:30N 40°40' W 074°01'0 0.0
2017-Oct-16 13:30N 40°40' W 074°01'0 0.0
2017-Oct-16 13:00N 40°40' W 074°01'0 0.0
2017-Oct-16 12:30N 40°40' W 074°01'0 0.0
2017-Oct-16 12:00N 40°40' W 074°01'0 0.0
2017-Oct-16 11:30N 40°40' W 074°01'0 0.0
2017-Oct-16 11:00N 40°40' W 074°01'0 0.0
2017-Oct-16 10:30N 40°40' W 074°01'0 0.0
2017-Oct-16 10:00N 40°40' W 074°01'0 0.0
2017-Oct-16 09:30N 40°40' W 074°01'0 0.0
2017-Oct-16 09:00N 40°40' W 074°01'0 0.0
2017-Oct-16 08:30N 40°40' W 074°01'0 0.0
2017-Oct-16 08:00N 40°40' W 074°01'0 0.0
2017-Oct-16 07:30N 40°40' W 074°01'0 0.0
2017-Oct-16 07:00N 40°40' W 074°01'0 0.0
2017-Oct-16 06:30N 40°40' W 074°01'0 0.0
2017-Oct-16 06:00N 40°40' W 074°01'0 0.0
2017-Oct-16 05:30N 40°40' W 074°01'0 0.0
2017-Oct-16 05:00N 40°40' W 074°01'0 0.0
2017-Oct-16 04:30N 40°40' W 074°01'0 0.0
2017-Oct-16 04:00N 40°40' W 074°01'0 0.0
2017-Oct-16 03:30N 40°40' W 074°01'0 0.0
2017-Oct-16 03:00N 40°40' W 074°01'0 0.0
2017-Oct-16 02:30N 40°40' W 074°01'0 0.0
2017-Oct-16 02:00N 40°40' W 074°01'0 0.0
2017-Oct-16 01:30N 40°40' W 074°01'0 0.0
2017-Oct-16 01:00N 40°40' W 074°01'0 0.0
2017-Oct-16 00:30N 40°40' W 074°01'0 0.0
2017-Oct-16 00:00N 40°40' W 074°01'0 0.0
2017-Oct-15 23:30N 40°40' W 074°01'0 0.0
2017-Oct-15 23:00N 40°40' W 074°01'0 0.0
2017-Oct-15 22:30N 40°40' W 074°01'0 0.0
2017-Oct-15 22:00N 40°40' W 074°01'0 0.0
2017-Oct-15 21:30N 40°40' W 074°01'0 0.0
2017-Oct-15 21:00N 40°40' W 074°01'0 0.0
2017-Oct-15 20:30N 40°40' W 074°01'0 0.0
2017-Oct-15 20:00N 40°40' W 074°01'0 0.0
2017-Oct-15 19:30N 40°40' W 074°01'0 0.0
2017-Oct-15 19:00N 40°40' W 074°01'0 0.0
2017-Oct-15 18:30N 40°40' W 074°01'0 0.0
2017-Oct-15 18:00N 40°40' W 074°01'0 0.0
2017-Oct-15 17:30N 40°40' W 074°01'0 0.0
2017-Oct-15 17:00N 40°40' W 074°01'0 0.0
2017-Oct-15 16:30N 40°40' W 074°01'0 0.0
2017-Oct-15 16:00N 40°40' W 074°01'0 0.0
2017-Oct-15 15:30N 40°40' W 074°01'0 0.0
2017-Oct-15 15:00N 40°40' W 074°01'0 0.0
2017-Oct-15 14:00N 40°40' W 074°01'0 0.0
2017-Oct-15 13:30N 40°40' W 074°01'0 0.0
2017-Oct-15 13:00N 40°40' W 074°01'0 0.0
2017-Oct-15 12:30N 40°40' W 074°01'0 0.0
2017-Oct-15 12:00N 40°40' W 074°01'0 0.0
2017-Oct-15 11:30N 40°40' W 074°01'0 0.0
2017-Oct-15 11:00N 40°40' W 074°01'0 0.0
2017-Oct-15 10:30N 40°40' W 074°01'0 0.0
2017-Oct-15 10:00N 40°40' W 074°01'0 0.0
2017-Oct-15 09:30N 40°40' W 074°01'0 0.0
2017-Oct-15 09:00N 40°40' W 074°01'0 0.0
2017-Oct-15 08:31N 40°40' W 074°01'0 0.0
2017-Oct-15 08:00N 40°40' W 074°01'0 0.0
2017-Oct-15 07:30N 40°40' W 074°01'0 0.0
2017-Oct-15 07:00N 40°40' W 074°01'0 0.0
2017-Oct-15 06:30N 40°40' W 074°01'0 0.0
2017-Oct-15 06:00N 40°40' W 074°01'0 0.0
2017-Oct-15 05:30N 40°40' W 074°01'0 0.0
2017-Oct-15 05:00N 40°40' W 074°01'0 0.0
2017-Oct-15 04:30N 40°40' W 074°01'0 0.0
2017-Oct-15 04:00N 40°40' W 074°01'0 0.0
2017-Oct-15 03:30N 40°40' W 074°01'0 0.0
2017-Oct-15 03:00N 40°40' W 074°01'0 1.0
2017-Oct-15 02:30N 40°40' W 074°01'4 7.2
2017-Oct-15 01:59N 40°39' W 074°06'1 1.5
2017-Oct-15 01:30N 40°39' W 074°07'0 0.0
2017-Oct-15 01:00N 40°39' W 074°07'0 0.0
2017-Oct-15 00:30N 40°39' W 074°07'0 0.0
2017-Oct-15 00:00N 40°39' W 074°07'0 0.0
2017-Oct-14 23:29N 40°39' W 074°07'1 1.6
2017-Oct-14 23:00N 40°39' W 074°06'4 7.2
2017-Oct-14 22:30N 40°40' W 074°01'0 1.0
2017-Oct-14 22:00N 40°40' W 074°01'0 0.0
2017-Oct-14 21:30N 40°40' W 074°01'1 1.6
2017-Oct-14 21:00N 40°40' W 074°02'1 1.6
2017-Oct-14 20:30N 40°41' W 074°02'3 5.5
2017-Oct-14 20:00N 40°43' W 074°01'3 6.1
2017-Oct-14 19:30N 40°46' W 074°00'3 6.4
2017-Oct-14 19:00N 40°49' W 073°58'3 6.9
2017-Oct-14 18:30N 40°52' W 073°56'4 7.8
2017-Oct-14 17:57N 40°56' W 073°55'2 0.1
2017-Oct-13 04:59N 40°58' W 073°54'3 5.3
2017-Oct-13 04:30N 40°56' W 073°55'2 4.9
2017-Oct-13 04:00N 40°54' W 073°56'2 4.3
2017-Oct-13 03:30N 40°52' W 073°57'3 6.2
2017-Oct-13 03:00N 40°49' W 073°58'3 6.3
2017-Oct-13 02:30N 40°46' W 074°01'3 6.3
2017-Oct-13 02:00N 40°43' W 074°01'3 6.0
2017-Oct-13 01:30N 40°40' W 074°03'0 0.5
2017-Oct-13 01:00N 40°40' W 074°03'0 0.2
2017-Oct-13 00:30N 40°40' W 074°03'1 2.5
2017-Oct-13 00:00N 40°40' W 074°02'0 0.4
2017-Oct-12 23:30N 40°40' W 074°02'0 0.0
2017-Oct-12 23:00N 40°40' W 074°02'1 2.7
2017-Oct-12 22:30N 40°41' W 074°02'3 5.8
2017-Oct-12 22:00N 40°44' W 074°01'3 5.1
2017-Oct-12 21:30N 40°46' W 074°00'2 4.3
2017-Oct-12 21:00N 40°48' W 073°59'2 3.7
2017-Oct-12 20:30N 40°50' W 073°58'2 3.3
2017-Oct-12 19:59N 40°52' W 073°57'2 3.2
2017-Oct-12 19:29N 40°53' W 073°56'14 0.3
2017-Oct-11 00:00N 40°40' W 074°03'3 5.5
2017-Oct-10 23:30N 40°42' W 074°01'3 6.4
2017-Oct-10 23:00N 40°44' W 073°58'1 1.5
2017-Oct-10 22:30N 40°44' W 073°57'1 3.0
2017-Oct-10 22:00N 40°43' W 073°58'2 4.6
2017-Oct-10 21:30N 40°42' W 074°00'3 6.0
2017-Oct-10 21:00N 40°40' W 074°03'4 8.3
2017-Oct-10 20:30N 40°38' W 074°09'3 5.4
2017-Oct-10 20:00N 40°38' W 074°12'0 0.1
2017-Oct-10 19:30N 40°38' W 074°12'2 3.4
2017-Oct-10 19:00N 40°39' W 074°10'3 6.7
2017-Oct-10 18:30N 40°39' W 074°06'2 4.9
2017-Oct-10 18:00N 40°40' W 074°03'0 0.0
2017-Oct-10 17:30N 40°40' W 074°03'1 1.2
2017-Oct-10 17:00N 40°40' W 074°02'1 0.1
2017-Oct-10 04:01N 40°40' W 074°01'0 0.0
2017-Oct-10 04:00N 40°40' W 074°01'0 0.5
2017-Oct-10 03:30N 40°40' W 074°01'4 7.9
2017-Oct-10 03:00N 40°39' W 074°06'4 7.2
2017-Oct-10 02:26N 40°39' W 074°11'1 2.5
2017-Oct-10 01:57N 40°38' W 074°12'1 1.6
2017-Oct-10 01:30N 40°38' W 074°12'3 7.0
2017-Oct-10 01:00N 40°39' W 074°07'3 6.4
2017-Oct-10 00:30N 40°40' W 074°03'0 0.2
2017-Oct-10 00:00N 40°40' W 074°03'2 4.3
2017-Oct-09 23:30N 40°42' W 074°01'3 5.5
2017-Oct-09 23:00N 40°43' W 073°58'1 2.7
2017-Oct-09 22:30N 40°44' W 073°57'1 1.0
2017-Oct-09 22:00N 40°44' W 073°57'0 0.1
2017-Oct-09 21:30N 40°44' W 073°57'2 3.7
2017-Oct-09 21:01N 40°43' W 073°58'2 4.8
2017-Oct-09 20:30N 40°41' W 074°01'1 2.2
2017-Oct-09 20:00N 40°40' W 074°01'0 0.0
2017-Oct-09 19:30N 40°40' W 074°01'0 0.0
2017-Oct-09 19:00N 40°40' W 074°01'0 0.0
2017-Oct-09 18:31N 40°40' W 074°01'0 0.0
2017-Oct-09 18:00N 40°40' W 074°01'0 0.0
2017-Oct-09 17:31N 40°40' W 074°01'0 0.0
2017-Oct-09 17:01N 40°40' W 074°01'0 0.0
2017-Oct-09 16:31N 40°40' W 074°01'0 0.0
2017-Oct-09 16:01N 40°40' W 074°01'0 0.0
2017-Oct-09 15:31N 40°40' W 074°01'0 0.0
2017-Oct-09 15:00N 40°40' W 074°01'0 0.0
2017-Oct-09 14:30N 40°40' W 074°01'1 1.1
2017-Oct-09 14:00N 40°40' W 074°01'1 1.2
2017-Oct-09 13:30N 40°40' W 074°02'1 0.0
2017-Oct-08 08:59N 40°40' W 074°01'0 0.0
2017-Oct-08 08:30N 40°40' W 074°01'0 0.0
2017-Oct-08 08:00N 40°40' W 074°01'0 0.0
2017-Oct-08 07:30N 40°40' W 074°01'0 0.0
2017-Oct-08 07:00N 40°40' W 074°01'0 0.0
2017-Oct-08 06:30N 40°40' W 074°01'0 0.0
2017-Oct-08 06:00N 40°40' W 074°01'0 0.0
2017-Oct-08 05:30N 40°40' W 074°01'0 0.0
2017-Oct-08 05:00N 40°40' W 074°01'0 0.0
2017-Oct-08 04:30N 40°40' W 074°01'0 0.0
2017-Oct-08 04:00N 40°40' W 074°01'0 0.0
2017-Oct-08 03:30N 40°40' W 074°01'0 0.0
2017-Oct-08 03:00N 40°40' W 074°01'0 0.0
2017-Oct-08 02:30N 40°40' W 074°01'0 0.0
2017-Oct-08 02:00N 40°40' W 074°01'0 0.0
2017-Oct-08 01:30N 40°40' W 074°01'0 0.0
2017-Oct-08 01:00N 40°40' W 074°01'1 1.4
2017-Oct-08 00:30N 40°40' W 074°02'0 0.8
2017-Oct-08 00:00N 40°40' W 074°02'2 3.7
2017-Oct-07 23:30N 40°40' W 074°04'0 0.9
2017-Oct-07 23:00N 40°40' W 074°04'4 7.2
2017-Oct-07 22:30N 40°42' W 073°60'3 5.8
2017-Oct-07 21:59N 40°44' W 073°57'0 0.5
2017-Oct-07 21:29N 40°44' W 073°57'2 3.8
2017-Oct-07 21:00N 40°43' W 073°58'3 6.0
2017-Oct-07 20:30N 40°41' W 074°01'1 2.4
2017-Oct-07 20:00N 40°40' W 074°00'0 0.0
2017-Oct-07 19:30N 40°40' W 074°00'0 0.0
2017-Oct-07 19:00N 40°40' W 074°00'0 0.0
2017-Oct-07 18:30N 40°40' W 074°00'1 1.2
2017-Oct-07 18:00N 40°40' W 074°01'2 3.3
2017-Oct-07 17:30N 40°40' W 074°03'0 0.0
2017-Oct-07 17:00N 40°40' W 074°03'0 0.0
2017-Oct-07 16:30N 40°40' W 074°03'0 0.1
2017-Oct-07 16:00N 40°40' W 074°03'0 0.1
2017-Oct-07 15:30N 40°40' W 074°03'0 0.0
2017-Oct-07 15:00N 40°40' W 074°03'0 0.0
2017-Oct-07 14:30N 40°40' W 074°03'0 0.0
2017-Oct-07 14:00N 40°40' W 074°03'0 0.0
2017-Oct-07 13:30N 40°40' W 074°03'0 0.0
2017-Oct-07 13:00N 40°40' W 074°03'0 0.0
2017-Oct-07 12:30N 40°40' W 074°03'0 0.0
2017-Oct-07 12:00N 40°40' W 074°03'  

Dump ship's entire track history